sensor_id;sensor_type;location;lat;lon;timestamp;pressure;altitude;pressure_sealevel;temperature;humidity
39897;BME280;25567;48.276;14.242;2024-03-08T00:02:07;98831.00;;;3.79;73.41
39897;BME280;25567;48.276;14.242;2024-03-08T00:04:34;98820.03;;;3.77;73.74
39897;BME280;25567;48.276;14.242;2024-03-08T00:07:00;98826.81;;;3.75;73.59
39897;BME280;25567;48.276;14.242;2024-03-08T00:09:27;98822.59;;;3.75;73.84
39897;BME280;25567;48.276;14.242;2024-03-08T00:11:54;98828.50;;;3.76;73.97
39897;BME280;25567;48.276;14.242;2024-03-08T00:14:21;98818.38;;;3.70;73.96
39897;BME280;25567;48.276;14.242;2024-03-08T00:16:48;98818.38;;;3.68;74.11
39897;BME280;25567;48.276;14.242;2024-03-08T00:19:15;98816.69;;;3.70;73.76
39897;BME280;25567;48.276;14.242;2024-03-08T00:21:41;98817.53;;;3.68;74.48
39897;BME280;25567;48.276;14.242;2024-03-08T00:24:08;98815.00;;;3.75;73.68
39897;BME280;25567;48.276;14.242;2024-03-08T00:26:35;98813.34;;;3.65;73.80
39897;BME280;25567;48.276;14.242;2024-03-08T00:29:02;98819.25;;;3.63;73.39
39897;BME280;25567;48.276;14.242;2024-03-08T00:31:30;98814.19;;;3.60;73.53
39897;BME280;25567;48.276;14.242;2024-03-08T00:33:57;98802.38;;;3.63;73.38
39897;BME280;25567;48.276;14.242;2024-03-08T00:36:24;98800.69;;;3.61;73.25
39897;BME280;25567;48.276;14.242;2024-03-08T00:38:51;98801.56;;;3.51;73.46
39897;BME280;25567;48.276;14.242;2024-03-08T00:41:18;98799.91;;;3.42;73.52
39897;BME280;25567;48.276;14.242;2024-03-08T00:43:45;98801.59;;;3.43;73.46
39897;BME280;25567;48.276;14.242;2024-03-08T00:46:14;98794.00;;;3.42;73.54
39897;BME280;25567;48.276;14.242;2024-03-08T00:48:41;98790.66;;;3.33;73.31
39897;BME280;25567;48.276;14.242;2024-03-08T00:51:10;98780.56;;;3.30;73.67
39897;BME280;25567;48.276;14.242;2024-03-08T00:53:37;98783.09;;;3.32;73.28
39897;BME280;25567;48.276;14.242;2024-03-08T00:56:03;98772.94;;;3.29;73.09
39897;BME280;25567;48.276;14.242;2024-03-08T00:58:31;98778.88;;;3.26;73.05
39897;BME280;25567;48.276;14.242;2024-03-08T01:00:57;98768.78;;;3.17;73.65
39897;BME280;25567;48.276;14.242;2024-03-08T01:03:26;98762.03;;;3.19;73.21
39897;BME280;25567;48.276;14.242;2024-03-08T01:05:53;98770.47;;;3.21;73.72
39897;BME280;25567;48.276;14.242;2024-03-08T01:08:19;98770.47;;;3.12;73.70
39897;BME280;25567;48.276;14.242;2024-03-08T01:10:46;98761.22;;;3.14;73.59
39897;BME280;25567;48.276;14.242;2024-03-08T01:13:13;98766.25;;;3.11;73.91
39897;BME280;25567;48.276;14.242;2024-03-08T01:15:39;98762.91;;;3.11;73.60
39897;BME280;25567;48.276;14.242;2024-03-08T01:18:08;98757.00;;;3.07;74.18
39897;BME280;25567;48.276;14.242;2024-03-08T01:20:34;98762.88;;;3.09;73.76
39897;BME280;25567;48.276;14.242;2024-03-08T01:23:01;98756.16;;;3.05;74.32
39897;BME280;25567;48.276;14.242;2024-03-08T01:25:28;98752.81;;;3.02;73.82
39897;BME280;25567;48.276;14.242;2024-03-08T01:27:55;98745.22;;;2.97;74.40
39897;BME280;25567;48.276;14.242;2024-03-08T01:30:22;98739.31;;;3.01;74.24
39897;BME280;25567;48.276;14.242;2024-03-08T01:32:49;98746.91;;;2.98;74.13
39897;BME280;25567;48.276;14.242;2024-03-08T01:35:16;98737.66;;;2.91;74.20
39897;BME280;25567;48.276;14.242;2024-03-08T01:37:44;98740.19;;;2.90;74.44
39897;BME280;25567;48.276;14.242;2024-03-08T01:40:11;98736.00;;;2.83;74.74
39897;BME280;25567;48.276;14.242;2024-03-08T01:42:39;98731.75;;;2.89;74.56
39897;BME280;25567;48.276;14.242;2024-03-08T01:45:06;98727.53;;;2.91;74.32
39897;BME280;25567;48.276;14.242;2024-03-08T01:47:34;98730.06;;;2.88;74.47
39897;BME280;25567;48.276;14.242;2024-03-08T01:50:01;98727.53;;;2.84;74.23
39897;BME280;25567;48.276;14.242;2024-03-08T01:52:30;98726.72;;;2.80;74.71
39897;BME280;25567;48.276;14.242;2024-03-08T01:55:02;98722.50;;;2.72;75.17
39897;BME280;25567;48.276;14.242;2024-03-08T01:57:36;98719.97;;;2.67;75.44
39897;BME280;25567;48.276;14.242;2024-03-08T02:00:05;98720.81;;;2.68;75.17
39897;BME280;25567;48.276;14.242;2024-03-08T02:02:32;98717.47;;;2.72;75.19
39897;BME280;25567;48.276;14.242;2024-03-08T02:05:01;98720.78;;;2.81;74.76
39897;BME280;25567;48.276;14.242;2024-03-08T02:07:28;98728.41;;;2.75;75.22
39897;BME280;25567;48.276;14.242;2024-03-08T02:09:55;98716.63;;;2.77;75.03
39897;BME280;25567;48.276;14.242;2024-03-08T02:12:22;98713.22;;;2.78;74.73
39897;BME280;25567;48.276;14.242;2024-03-08T02:14:49;98705.66;;;2.84;74.22
39897;BME280;25567;48.276;14.242;2024-03-08T02:17:16;98709.84;;;2.79;74.56
39897;BME280;25567;48.276;14.242;2024-03-08T02:19:42;98700.63;;;2.74;74.68
39897;BME280;25567;48.276;14.242;2024-03-08T02:22:09;98703.13;;;2.72;74.72
39897;BME280;25567;48.276;14.242;2024-03-08T02:24:36;98696.38;;;2.73;74.66
39897;BME280;25567;48.276;14.242;2024-03-08T02:27:04;98695.56;;;2.68;74.99
39897;BME280;25567;48.276;14.242;2024-03-08T02:29:31;98697.25;;;2.70;74.37
39897;BME280;25567;48.276;14.242;2024-03-08T02:31:59;98690.50;;;2.65;74.86
39897;BME280;25567;48.276;14.242;2024-03-08T02:34:25;98698.94;;;2.59;75.24
39897;BME280;25567;48.276;14.242;2024-03-08T02:36:52;98689.69;;;2.52;75.39
39897;BME280;25567;48.276;14.242;2024-03-08T02:39:19;98693.03;;;2.51;75.15
39897;BME280;25567;48.276;14.242;2024-03-08T02:41:46;98694.72;;;2.46;75.48
39897;BME280;25567;48.276;14.242;2024-03-08T02:44:13;98686.31;;;2.43;75.40
39897;BME280;25567;48.276;14.242;2024-03-08T02:46:41;98690.53;;;2.39;75.58
39897;BME280;25567;48.276;14.242;2024-03-08T02:49:08;98693.06;;;2.45;75.41
39897;BME280;25567;48.276;14.242;2024-03-08T02:51:35;98695.59;;;2.44;75.12
39897;BME280;25567;48.276;14.242;2024-03-08T02:54:02;98690.53;;;2.48;74.85
39897;BME280;25567;48.276;14.242;2024-03-08T02:56:30;98693.88;;;2.44;75.01
39897;BME280;25567;48.276;14.242;2024-03-08T02:59:01;98701.47;;;2.44;74.75
39897;BME280;25567;48.276;14.242;2024-03-08T03:01:29;98686.31;;;2.40;74.97
39897;BME280;25567;48.276;14.242;2024-03-08T03:03:56;98694.75;;;2.34;75.26
39897;BME280;25567;48.276;14.242;2024-03-08T03:06:23;98694.75;;;2.34;75.26
39897;BME280;25567;48.276;14.242;2024-03-08T03:08:49;98688.00;;;2.30;75.21
39897;BME280;25567;48.276;14.242;2024-03-08T03:11:18;98685.47;;;2.26;75.24
39897;BME280;25567;48.276;14.242;2024-03-08T03:13:44;98696.44;;;2.26;75.40
39897;BME280;25567;48.276;14.242;2024-03-08T03:16:18;98686.34;;;2.26;74.86
39897;BME280;25567;48.276;14.242;2024-03-08T03:18:46;98681.28;;;2.20;75.33
39897;BME280;25567;48.276;14.242;2024-03-08T03:21:14;98682.94;;;2.18;74.68
39897;BME280;25567;48.276;14.242;2024-03-08T03:23:41;98677.06;;;2.17;74.96
39897;BME280;25567;48.276;14.242;2024-03-08T03:26:11;98679.59;;;2.19;74.88
39897;BME280;25567;48.276;14.242;2024-03-08T03:28:39;98684.63;;;2.16;74.67
39897;BME280;25567;48.276;14.242;2024-03-08T03:31:06;98692.22;;;2.10;74.86
39897;BME280;25567;48.276;14.242;2024-03-08T03:33:36;98683.78;;;2.12;74.81
39897;BME280;25567;48.276;14.242;2024-03-08T03:36:04;98690.53;;;2.04;74.63
39897;BME280;25567;48.276;14.242;2024-03-08T03:38:32;98692.19;;;2.07;74.60
39897;BME280;25567;48.276;14.242;2024-03-08T03:41:00;98691.38;;;2.05;74.90
39897;BME280;25567;48.276;14.242;2024-03-08T03:43:33;98688.81;;;2.02;75.00
39897;BME280;25567;48.276;14.242;2024-03-08T03:46:00;98684.63;;;2.02;75.28
39897;BME280;25567;48.276;14.242;2024-03-08T03:48:27;98682.97;;;2.03;75.04
39897;BME280;25567;48.276;14.242;2024-03-08T03:50:54;98682.09;;;2.02;75.05
39897;BME280;25567;48.276;14.242;2024-03-08T03:53:21;98675.38;;;2.01;74.90
39897;BME280;25567;48.276;14.242;2024-03-08T03:55:47;98678.72;;;2.02;75.01
39897;BME280;25567;48.276;14.242;2024-03-08T03:58:14;98676.22;;;1.96;75.52
39897;BME280;25567;48.276;14.242;2024-03-08T04:00:42;98672.00;;;2.02;75.18
39897;BME280;25567;48.276;14.242;2024-03-08T04:03:09;98667.81;;;2.06;75.00
39897;BME280;25567;48.276;14.242;2024-03-08T04:05:36;98667.78;;;2.09;74.66
39897;BME280;25567;48.276;14.242;2024-03-08T04:08:03;98665.25;;;2.10;74.21
39897;BME280;25567;48.276;14.242;2024-03-08T04:10:30;98659.38;;;2.04;74.67
39897;BME280;25567;48.276;14.242;2024-03-08T04:12:57;98660.22;;;2.04;74.25
39897;BME280;25567;48.276;14.242;2024-03-08T04:15:24;98650.97;;;2.11;73.33
39897;BME280;25567;48.276;14.242;2024-03-08T04:17:51;98652.66;;;2.07;73.50
39897;BME280;25567;48.276;14.242;2024-03-08T04:20:19;98649.28;;;2.05;73.42
39897;BME280;25567;48.276;14.242;2024-03-08T04:22:46;98643.38;;;2.03;73.76
39897;BME280;25567;48.276;14.242;2024-03-08T04:25:16;98642.56;;;2.06;73.68
39897;BME280;25567;48.276;14.242;2024-03-08T04:27:42;98643.41;;;2.00;73.72
39897;BME280;25567;48.276;14.242;2024-03-08T04:30:09;98640.03;;;1.98;73.65
39897;BME280;25567;48.276;14.242;2024-03-08T04:32:36;98639.19;;;1.96;73.61
39897;BME280;25567;48.276;14.242;2024-03-08T04:35:04;98637.50;;;1.97;73.37
39897;BME280;25567;48.276;14.242;2024-03-08T04:37:31;98636.66;;;2.05;73.59
39897;BME280;25567;48.276;14.242;2024-03-08T04:39:58;98623.22;;;1.97;73.86
39897;BME280;25567;48.276;14.242;2024-03-08T04:42:27;98637.50;;;1.94;74.21
39897;BME280;25567;48.276;14.242;2024-03-08T04:44:56;98630.78;;;1.90;74.05
39897;BME280;25567;48.276;14.242;2024-03-08T04:47:23;98632.44;;;1.98;73.93
39897;BME280;25567;48.276;14.242;2024-03-08T04:49:50;98625.75;;;1.94;74.32
39897;BME280;25567;48.276;14.242;2024-03-08T04:52:17;98629.09;;;1.96;73.95
39897;BME280;25567;48.276;14.242;2024-03-08T04:54:44;98634.13;;;2.04;74.24
39897;BME280;25567;48.276;14.242;2024-03-08T04:57:13;98634.16;;;2.01;74.58
39897;BME280;25567;48.276;14.242;2024-03-08T04:59:40;98632.47;;;1.94;74.95
39897;BME280;25567;48.276;14.242;2024-03-08T05:02:07;98633.31;;;1.96;75.03
39897;BME280;25567;48.276;14.242;2024-03-08T05:04:34;98629.94;;;2.06;74.52
39897;BME280;25567;48.276;14.242;2024-03-08T05:07:02;98620.69;;;2.11;74.38
39897;BME280;25567;48.276;14.242;2024-03-08T05:09:29;98628.25;;;2.11;74.29
39897;BME280;25567;48.276;14.242;2024-03-08T05:11:58;98627.41;;;2.15;74.19
39897;BME280;25567;48.276;14.242;2024-03-08T05:14:26;98629.09;;;2.04;74.77
39897;BME280;25567;48.276;14.242;2024-03-08T05:16:53;98624.03;;;2.05;74.30
39897;BME280;25567;48.276;14.242;2024-03-08T05:19:20;98629.94;;;2.01;74.54
39897;BME280;25567;48.276;14.242;2024-03-08T05:21:49;98619.81;;;2.00;74.57
39897;BME280;25567;48.276;14.242;2024-03-08T05:24:17;98613.97;;;2.01;74.86
39897;BME280;25567;48.276;14.242;2024-03-08T05:26:45;98621.50;;;1.96;75.09
39897;BME280;25567;48.276;14.242;2024-03-08T05:29:13;98614.81;;;1.92;75.24
39897;BME280;25567;48.276;14.242;2024-03-08T05:31:49;98620.66;;;1.93;75.12
39897;BME280;25567;48.276;14.242;2024-03-08T05:34:16;98620.69;;;1.90;75.62
39897;BME280;25567;48.276;14.242;2024-03-08T05:36:43;98611.44;;;1.99;74.69
39897;BME280;25567;48.276;14.242;2024-03-08T05:39:14;98615.63;;;2.02;74.69
39897;BME280;25567;48.276;14.242;2024-03-08T05:41:42;98614.81;;;2.03;74.67
39897;BME280;25567;48.276;14.242;2024-03-08T05:44:09;98610.59;;;1.99;74.69
39897;BME280;25567;48.276;14.242;2024-03-08T05:46:37;98614.81;;;1.91;75.29
39897;BME280;25567;48.276;14.242;2024-03-08T05:49:04;98614.78;;;1.97;74.82
39897;BME280;25567;48.276;14.242;2024-03-08T05:51:38;98610.59;;;1.97;74.92
39897;BME280;25567;48.276;14.242;2024-03-08T05:54:10;98608.91;;;2.01;74.58
39897;BME280;25567;48.276;14.242;2024-03-08T05:56:41;98613.13;;;1.94;75.06
39897;BME280;25567;48.276;14.242;2024-03-08T05:59:10;98611.41;;;1.95;75.26
39897;BME280;25567;48.276;14.242;2024-03-08T06:01:37;98609.75;;;1.85;75.34
39897;BME280;25567;48.276;14.242;2024-03-08T06:04:07;98608.06;;;1.94;75.14
39897;BME280;25567;48.276;14.242;2024-03-08T06:06:34;98600.47;;;1.93;75.20
39897;BME280;25567;48.276;14.242;2024-03-08T06:09:04;98605.53;;;1.90;75.58
39897;BME280;25567;48.276;14.242;2024-03-08T06:11:44;98602.19;;;1.92;75.20
39897;BME280;25567;48.276;14.242;2024-03-08T06:14:11;98599.63;;;1.98;75.08
39897;BME280;25567;48.276;14.242;2024-03-08T06:16:38;98596.28;;;1.99;75.14
39897;BME280;25567;48.276;14.242;2024-03-08T06:19:05;98602.16;;;1.97;75.07
39897;BME280;25567;48.276;14.242;2024-03-08T06:21:32;98603.00;;;2.03;75.03
39897;BME280;25567;48.276;14.242;2024-03-08T06:23:59;98603.00;;;2.08;74.71
39897;BME280;25567;48.276;14.242;2024-03-08T06:26:27;98598.81;;;2.10;74.65
39897;BME280;25567;48.276;14.242;2024-03-08T06:28:58;98602.19;;;2.12;74.99
39897;BME280;25567;48.276;14.242;2024-03-08T06:31:25;98600.50;;;2.15;75.03
39897;BME280;25567;48.276;14.242;2024-03-08T06:33:52;98600.47;;;2.14;74.93
39897;BME280;25567;48.276;14.242;2024-03-08T06:36:23;98603.00;;;2.21;74.68
39897;BME280;25567;48.276;14.242;2024-03-08T06:38:50;98598.81;;;2.20;74.98
39897;BME280;25567;48.276;14.242;2024-03-08T06:41:18;98595.41;;;2.31;74.42
39897;BME280;25567;48.276;14.242;2024-03-08T06:43:46;98592.03;;;2.30;74.25
39897;BME280;25567;48.276;14.242;2024-03-08T06:46:16;98592.88;;;2.34;74.61
39897;BME280;25567;48.276;14.242;2024-03-08T06:48:43;98601.28;;;2.46;73.98
39897;BME280;25567;48.276;14.242;2024-03-08T06:51:13;98602.97;;;2.46;74.12
39897;BME280;25567;48.276;14.242;2024-03-08T06:53:41;98598.75;;;2.52;73.65
39897;BME280;25567;48.276;14.242;2024-03-08T06:56:08;98593.66;;;2.70;73.33
39897;BME280;25567;48.276;14.242;2024-03-08T06:58:35;98603.75;;;2.67;73.46
39897;BME280;25567;48.276;14.242;2024-03-08T07:01:02;98595.28;;;2.80;73.33
39897;BME280;25567;48.276;14.242;2024-03-08T07:03:31;98597.75;;;2.95;72.73
39897;BME280;25567;48.276;14.242;2024-03-08T07:05:59;98589.25;;;3.11;71.60
39897;BME280;25567;48.276;14.242;2024-03-08T07:08:28;98594.28;;;3.13;71.71
39897;BME280;25567;48.276;14.242;2024-03-08T07:10:55;98593.44;;;3.15;71.77
39897;BME280;25567;48.276;14.242;2024-03-08T07:13:22;98590.06;;;3.18;71.42
39897;BME280;25567;48.276;14.242;2024-03-08T07:15:49;98597.59;;;3.27;70.76
39897;BME280;25567;48.276;14.242;2024-03-08T07:18:16;98592.53;;;3.25;70.87
39897;BME280;25567;48.276;14.242;2024-03-08T07:20:43;98590.00;;;3.31;70.60
39897;BME280;25567;48.276;14.242;2024-03-08T07:23:12;98586.56;;;3.42;71.18
39897;BME280;25567;48.276;14.242;2024-03-08T07:25:59;98585.69;;;3.47;70.87
39897;BME280;25567;48.276;14.242;2024-03-08T07:28:27;98586.56;;;3.45;70.89
39897;BME280;25567;48.276;14.242;2024-03-08T07:31:00;98582.16;;;3.66;70.62
39897;BME280;25567;48.276;14.242;2024-03-08T07:33:38;98582.09;;;3.77;69.68
39897;BME280;25567;48.276;14.242;2024-03-08T07:36:06;98578.69;;;3.81;69.98
39897;BME280;25567;48.276;14.242;2024-03-08T07:38:32;98577.81;;;3.86;69.76
39897;BME280;25567;48.276;14.242;2024-03-08T07:41:00;98571.00;;;3.91;69.69
39897;BME280;25567;48.276;14.242;2024-03-08T07:43:30;98568.38;;;4.02;68.91
39897;BME280;25567;48.276;14.242;2024-03-08T07:45:57;98569.19;;;4.07;68.89
39897;BME280;25567;48.276;14.242;2024-03-08T07:48:24;98569.13;;;4.13;68.88
39897;BME280;25567;48.276;14.242;2024-03-08T07:50:51;98560.56;;;4.24;68.18
39897;BME280;25567;48.276;14.242;2024-03-08T07:53:17;98562.16;;;4.36;67.92
39897;BME280;25567;48.276;14.242;2024-03-08T07:55:44;98551.84;;;4.54;68.32
39897;BME280;25567;48.276;14.242;2024-03-08T07:58:11;98553.34;;;4.67;67.86
39897;BME280;25567;48.276;14.242;2024-03-08T08:00:37;98551.47;;;4.83;67.58
39897;BME280;25567;48.276;14.242;2024-03-08T08:03:04;98552.25;;;4.91;67.24
39897;BME280;25567;48.276;14.242;2024-03-08T08:05:31;98553.00;;;4.97;66.17
39897;BME280;25567;48.276;14.242;2024-03-08T08:08:02;98550.53;;;4.93;65.86
39897;BME280;25567;48.276;14.242;2024-03-08T08:10:34;98537.88;;;4.91;66.17
39897;BME280;25567;48.276;14.242;2024-03-08T08:13:01;98541.97;;;5.01;65.54
39897;BME280;25567;48.276;14.242;2024-03-08T08:15:31;98542.69;;;5.09;66.21
39897;BME280;25567;48.276;14.242;2024-03-08T08:18:00;98530.75;;;5.17;65.61
39897;BME280;25567;48.276;14.242;2024-03-08T08:20:29;98535.88;;;5.14;65.11
39897;BME280;25567;48.276;14.242;2024-03-08T08:22:56;98539.25;;;5.13;65.81
39897;BME280;25567;48.276;14.242;2024-03-08T08:25:23;98526.38;;;5.28;65.25
39897;BME280;25567;48.276;14.242;2024-03-08T08:27:51;98526.28;;;5.33;65.38
39897;BME280;25567;48.276;14.242;2024-03-08T08:30:20;98525.16;;;5.52;65.14
39897;BME280;25567;48.276;14.242;2024-03-08T08:32:47;98524.13;;;5.65;65.45
39897;BME280;25567;48.276;14.242;2024-03-08T08:35:15;98518.97;;;5.68;64.35
39897;BME280;25567;48.276;14.242;2024-03-08T08:37:43;98523.81;;;5.82;63.68
39897;BME280;25567;48.276;14.242;2024-03-08T08:40:11;98511.00;;;5.91;63.49
39897;BME280;25567;48.276;14.242;2024-03-08T08:42:42;98510.63;;;6.12;63.18
39897;BME280;25567;48.276;14.242;2024-03-08T08:45:09;98507.94;;;6.21;63.18
39897;BME280;25567;48.276;14.242;2024-03-08T08:47:45;98501.75;;;6.34;63.58
39897;BME280;25567;48.276;14.242;2024-03-08T08:50:14;98492.91;;;6.53;62.31
39897;BME280;25567;48.276;14.242;2024-03-08T08:52:40;98487.72;;;6.59;61.26
39897;BME280;25567;48.276;14.242;2024-03-08T08:55:10;98487.75;;;6.56;61.26
39897;BME280;25567;48.276;14.242;2024-03-08T08:57:42;98477.56;;;6.56;60.53
39897;BME280;25567;48.276;14.242;2024-03-08T09:00:09;98479.03;;;6.69;59.49
39897;BME280;25567;48.276;14.242;2024-03-08T09:02:42;98482.22;;;6.77;59.29
39897;BME280;25567;48.276;14.242;2024-03-08T09:05:10;98471.28;;;6.75;58.69
39897;BME280;25567;48.276;14.242;2024-03-08T09:07:38;98474.75;;;6.71;58.94
39897;BME280;25567;48.276;14.242;2024-03-08T09:10:05;98484.34;;;6.97;59.43
39897;BME280;25567;48.276;14.242;2024-03-08T09:12:43;98478.97;;;7.10;58.94
39897;BME280;25567;48.276;14.242;2024-03-08T09:15:10;98474.88;;;7.05;57.79
39897;BME280;25567;48.276;14.242;2024-03-08T09:17:40;98466.88;;;7.20;57.13
39897;BME280;25567;48.276;14.242;2024-03-08T09:20:09;98464.47;;;7.14;57.40
39897;BME280;25567;48.276;14.242;2024-03-08T09:22:37;98451.34;;;7.30;56.40
39897;BME280;25567;48.276;14.242;2024-03-08T09:25:04;98452.38;;;7.23;56.57
39897;BME280;25567;48.276;14.242;2024-03-08T09:27:31;98460.59;;;7.34;55.99
39897;BME280;25567;48.276;14.242;2024-03-08T09:29:58;98456.16;;;7.42;56.76
39897;BME280;25567;48.276;14.242;2024-03-08T09:32:25;98451.72;;;7.50;56.58
39897;BME280;25567;48.276;14.242;2024-03-08T09:34:53;98459.34;;;7.50;55.89
39897;BME280;25567;48.276;14.242;2024-03-08T09:37:20;98449.59;;;7.67;57.42
39897;BME280;25567;48.276;14.242;2024-03-08T09:39:46;98454.81;;;7.63;56.20
39897;BME280;25567;48.276;14.242;2024-03-08T09:42:15;98451.19;;;7.71;56.94
39897;BME280;25567;48.276;14.242;2024-03-08T09:44:46;98448.22;;;7.88;54.97
39897;BME280;25567;48.276;14.242;2024-03-08T09:47:13;98454.56;;;8.06;55.91
39897;BME280;25567;48.276;14.242;2024-03-08T09:49:41;98457.84;;;8.09;53.91
39897;BME280;25567;48.276;14.242;2024-03-08T09:52:08;98452.53;;;8.17;54.83
39897;BME280;25567;48.276;14.242;2024-03-08T09:54:36;98445.94;;;8.42;54.18
39897;BME280;25567;48.276;14.242;2024-03-08T09:57:04;98441.16;;;8.30;54.02
39897;BME280;25567;48.276;14.242;2024-03-08T09:59:31;98450.19;;;8.41;53.66
39897;BME280;25567;48.276;14.242;2024-03-08T10:02:03;98436.91;;;8.30;53.90
39897;BME280;25567;48.276;14.242;2024-03-08T10:04:32;98432.53;;;8.35;54.17
39897;BME280;25567;48.276;14.242;2024-03-08T10:07:00;98433.97;;;8.44;53.38
39897;BME280;25567;48.276;14.242;2024-03-08T10:09:28;98430.66;;;8.40;54.20
39897;BME280;25567;48.276;14.242;2024-03-08T10:11:58;98424.97;;;8.31;52.10
39897;BME280;25567;48.276;14.242;2024-03-08T10:14:25;98429.22;;;8.32;52.17
39897;BME280;25567;48.276;14.242;2024-03-08T10:16:53;98417.63;;;8.19;53.76
39897;BME280;25567;48.276;14.242;2024-03-08T10:19:20;98426.66;;;8.32;53.63
39897;BME280;25567;48.276;14.242;2024-03-08T10:21:51;98417.19;;;8.66;52.90
39897;BME280;25567;48.276;14.242;2024-03-08T10:24:23;98424.38;;;8.81;51.68
39897;BME280;25567;48.276;14.242;2024-03-08T10:27:00;98415.06;;;8.80;52.54
39897;BME280;25567;48.276;14.242;2024-03-08T10:29:32;98406.09;;;8.95;51.83
39897;BME280;25567;48.276;14.242;2024-03-08T10:31:59;98409.47;;;8.95;51.96
39897;BME280;25567;48.276;14.242;2024-03-08T10:34:27;98399.56;;;9.12;51.87
39897;BME280;25567;48.276;14.242;2024-03-08T10:37:01;98403.38;;;9.27;51.22
39897;BME280;25567;48.276;14.242;2024-03-08T10:39:35;98408.88;;;9.15;50.68
39897;BME280;25567;48.276;14.242;2024-03-08T10:42:05;98404.00;;;9.33;50.24
39897;BME280;25567;48.276;14.242;2024-03-08T10:45:05;98408.88;;;9.15;51.30
39897;BME280;25567;48.276;14.242;2024-03-08T10:47:35;98399.84;;;9.05;50.60
39897;BME280;25567;48.276;14.242;2024-03-08T10:50:17;98401.78;;;9.23;50.17
39897;BME280;25567;48.276;14.242;2024-03-08T10:52:51;98399.50;;;9.41;50.13
39897;BME280;25567;48.276;14.242;2024-03-08T10:55:19;98398.00;;;9.60;50.53
39897;BME280;25567;48.276;14.242;2024-03-08T10:57:47;98401.88;;;9.72;49.12
39897;BME280;25567;48.276;14.242;2024-03-08T11:00:14;98385.09;;;9.63;50.04
39897;BME280;25567;48.276;14.242;2024-03-08T11:02:45;98394.94;;;9.49;49.69
39897;BME280;25567;48.276;14.242;2024-03-08T11:05:31;98373.03;;;9.42;50.34
39897;BME280;25567;48.276;14.242;2024-03-08T11:08:02;98378.63;;;9.53;49.96
39897;BME280;25567;48.276;14.242;2024-03-08T11:10:31;98369.50;;;9.46;50.52
39897;BME280;25567;48.276;14.242;2024-03-08T11:12:58;98377.91;;;9.50;50.26
39897;BME280;25567;48.276;14.242;2024-03-08T11:15:24;98360.97;;;9.47;50.73
39897;BME280;25567;48.276;14.242;2024-03-08T11:17:51;98357.09;;;9.60;51.30
39897;BME280;25567;48.276;14.242;2024-03-08T11:20:19;98349.63;;;9.56;50.44
39897;BME280;25567;48.276;14.242;2024-03-08T11:22:50;98345.22;;;9.59;49.84
39897;BME280;25567;48.276;14.242;2024-03-08T11:25:35;98342.50;;;9.64;49.95
39897;BME280;25567;48.276;14.242;2024-03-08T11:28:17;98348.50;;;9.63;48.17
39897;BME280;25567;48.276;14.242;2024-03-08T11:33:34;98342.81;;;9.55;49.02
39897;BME280;25567;48.276;14.242;2024-03-08T11:36:12;98339.19;;;9.85;48.70
39897;BME280;25567;48.276;14.242;2024-03-08T11:38:43;98327.88;;;9.92;49.36
39897;BME280;25567;48.276;14.242;2024-03-08T11:41:10;98325.25;;;9.93;49.02
39897;BME280;25567;48.276;14.242;2024-03-08T11:43:45;98318.94;;;10.04;48.21
39897;BME280;25567;48.276;14.242;2024-03-08T11:46:13;98330.16;;;10.00;48.67
39897;BME280;25567;48.276;14.242;2024-03-08T11:48:46;98316.69;;;10.19;49.20
39897;BME280;25567;48.276;14.242;2024-03-08T11:51:15;98305.69;;;10.39;47.86
39897;BME280;25567;48.276;14.242;2024-03-08T11:53:45;98308.97;;;10.42;47.66
39897;BME280;25567;48.276;14.242;2024-03-08T11:56:14;98311.47;;;10.44;47.41
39897;BME280;25567;48.276;14.242;2024-03-08T11:58:53;98308.00;;;10.23;48.59
39897;BME280;25567;48.276;14.242;2024-03-08T12:01:20;98306.63;;;10.36;48.24
39897;BME280;25567;48.276;14.242;2024-03-08T12:03:53;98309.25;;;10.35;48.41
39897;BME280;25567;48.276;14.242;2024-03-08T12:06:20;98304.69;;;10.43;48.80
39897;BME280;25567;48.276;14.242;2024-03-08T12:08:47;98294.91;;;10.31;47.88
39897;BME280;25567;48.276;14.242;2024-03-08T12:11:17;98289.91;;;10.28;48.08
39897;BME280;25567;48.276;14.242;2024-03-08T12:13:51;98292.72;;;10.43;46.54
39897;BME280;25567;48.276;14.242;2024-03-08T12:16:18;98292.22;;;10.57;47.96
39897;BME280;25567;48.276;14.242;2024-03-08T12:18:45;98288.97;;;10.52;47.61
39897;BME280;25567;48.276;14.242;2024-03-08T12:21:12;98276.66;;;10.61;48.18
39897;BME280;25567;48.276;14.242;2024-03-08T12:24:04;98275.31;;;10.53;46.90
39897;BME280;25567;48.276;14.242;2024-03-08T12:26:32;98274.03;;;10.41;47.45
39897;BME280;25567;48.276;14.242;2024-03-08T12:29:21;98269.03;;;10.38;48.06
39897;BME280;25567;48.276;14.242;2024-03-08T12:31:54;98265.28;;;10.47;47.13
39897;BME280;25567;48.276;14.242;2024-03-08T12:34:21;98273.16;;;10.64;47.74
39897;BME280;25567;48.276;14.242;2024-03-08T12:36:51;98270.19;;;10.53;47.92
39897;BME280;25567;48.276;14.242;2024-03-08T12:39:22;98271.75;;;10.57;47.68
39897;BME280;25567;48.276;14.242;2024-03-08T12:41:54;98259.09;;;10.74;48.54
39897;BME280;25567;48.276;14.242;2024-03-08T12:44:21;98262.44;;;10.96;47.64
39897;BME280;25567;48.276;14.242;2024-03-08T12:46:52;98256.03;;;10.86;45.97
39897;BME280;25567;48.276;14.242;2024-03-08T12:49:20;98255.59;;;10.96;47.89
39897;BME280;25567;48.276;14.242;2024-03-08T12:51:50;98247.34;;;10.90;46.58
39897;BME280;25567;48.276;14.242;2024-03-08T12:54:19;98252.59;;;11.07;46.79
39897;BME280;25567;48.276;14.242;2024-03-08T12:56:50;98246.94;;;11.19;45.34
39897;BME280;25567;48.276;14.242;2024-03-08T12:59:21;98247.16;;;11.15;46.88
39897;BME280;25567;48.276;14.242;2024-03-08T13:01:50;98237.50;;;11.01;46.17
39897;BME280;25567;48.276;14.242;2024-03-08T13:04:18;98231.84;;;11.13;46.29
39897;BME280;25567;48.276;14.242;2024-03-08T13:06:45;98233.63;;;10.91;45.47
39897;BME280;25567;48.276;14.242;2024-03-08T13:09:21;98228.63;;;10.68;46.44
39897;BME280;25567;48.276;14.242;2024-03-08T13:11:49;98232.22;;;10.64;45.94